Search for airport 
image banner adimage banner adimage banner ad
image banner ad

N16 - Centre Airpark

Located in Centre Hall, United States

ICAO - N16, IATA -

Data provided by Airmate  

General information

Coordinates: N40°48'42" W77°39'26"
Elevation is 1307 feet MSL.
Magnetic variation is -10° East
View others Airports in Pennsylvania

Operational data

Special qualification required
Current time UTC:
Current local time:
Weather at : KRVL - Mifflin County ( 15 km )
METAR: KRVL 132055Z AUTO 11007KT 090V150 5SM HZ FEW029 28/20 A2982 RMK AO2
View NOTAMs / SUP AIP / TFR affecting this airport [VIEW]
Communications frequencies: [VIEW]

Runways:

RWY identifierQFULength (ft)Width (ft)SurfaceLDA (ft)
063100210GRASS
243100210GRASS

Airport contact information

Address: Centre Hall United States

Satellite view of N16